sensor_id;sensor_type;location;lat;lon;timestamp;P1;durP1;ratioP1;P2;durP2;ratioP2
36001;SDS011;22070;50.922;5.430;2023-05-19T00:01:06;10.07;;;4.40;;
36001;SDS011;22070;50.922;5.430;2023-05-19T00:06:00;12.65;;;4.70;;
36001;SDS011;22070;50.922;5.430;2023-05-19T00:08:28;7.80;;;4.45;;
36001;SDS011;22070;50.922;5.430;2023-05-19T00:10:56;8.70;;;4.20;;
36001;SDS011;22070;50.922;5.430;2023-05-19T00:13:22;6.38;;;4.10;;
36001;SDS011;22070;50.922;5.430;2023-05-19T00:15:48;11.53;;;4.13;;
36001;SDS011;22070;50.922;5.430;2023-05-19T00:18:15;9.98;;;4.30;;
36001;SDS011;22070;50.922;5.430;2023-05-19T00:20:41;14.52;;;4.38;;
36001;SDS011;22070;50.922;5.430;2023-05-19T00:23:07;8.00;;;4.43;;
36001;SDS011;22070;50.922;5.430;2023-05-19T00:28:00;9.60;;;4.67;;
36001;SDS011;22070;50.922;5.430;2023-05-19T00:30:27;12.90;;;4.15;;
36001;SDS011;22070;50.922;5.430;2023-05-19T00:32:53;14.27;;;4.55;;
36001;SDS011;22070;50.922;5.430;2023-05-19T00:35:19;11.57;;;4.73;;
36001;SDS011;22070;50.922;5.430;2023-05-19T00:37:45;10.20;;;4.40;;
36001;SDS011;22070;50.922;5.430;2023-05-19T00:40:11;10.27;;;4.82;;
36001;SDS011;22070;50.922;5.430;2023-05-19T00:42:37;11.20;;;4.85;;
36001;SDS011;22070;50.922;5.430;2023-05-19T00:45:03;12.85;;;4.85;;
36001;SDS011;22070;50.922;5.430;2023-05-19T00:47:29;9.18;;;4.50;;
36001;SDS011;22070;50.922;5.430;2023-05-19T00:49:55;7.25;;;4.65;;
36001;SDS011;22070;50.922;5.430;2023-05-19T00:52:21;8.95;;;4.80;;
36001;SDS011;22070;50.922;5.430;2023-05-19T00:54:46;11.23;;;4.95;;
36001;SDS011;22070;50.922;5.430;2023-05-19T00:57:13;8.95;;;4.97;;
36001;SDS011;22070;50.922;5.430;2023-05-19T00:59:39;9.73;;;5.05;;
36001;SDS011;22070;50.922;5.430;2023-05-19T01:02:05;11.90;;;5.30;;
36001;SDS011;22070;50.922;5.430;2023-05-19T01:04:31;9.40;;;4.97;;
36001;SDS011;22070;50.922;5.430;2023-05-19T01:06:59;14.77;;;5.22;;
36001;SDS011;22070;50.922;5.430;2023-05-19T01:09:25;10.38;;;5.22;;
36001;SDS011;22070;50.922;5.430;2023-05-19T01:11:51;5.05;;;3.63;;
36001;SDS011;22070;50.922;5.430;2023-05-19T01:14:17;9.00;;;4.80;;
36001;SDS011;22070;50.922;5.430;2023-05-19T01:27:19;10.98;;;5.28;;
36001;SDS011;22070;50.922;5.430;2023-05-19T01:32:47;12.20;;;5.18;;
36001;SDS011;22070;50.922;5.430;2023-05-19T01:35:15;12.15;;;5.68;;
36001;SDS011;22070;50.922;5.430;2023-05-19T01:37:41;12.98;;;5.32;;
36001;SDS011;22070;50.922;5.430;2023-05-19T01:40:09;12.23;;;4.93;;
36001;SDS011;22070;50.922;5.430;2023-05-19T01:42:36;13.83;;;6.13;;
36001;SDS011;22070;50.922;5.430;2023-05-19T01:45:04;18.60;;;5.90;;
36001;SDS011;22070;50.922;5.430;2023-05-19T01:47:34;11.35;;;5.22;;
36001;SDS011;22070;50.922;5.430;2023-05-19T01:50:02;10.90;;;5.70;;
36001;SDS011;22070;50.922;5.430;2023-05-19T01:52:28;15.63;;;5.50;;
36001;SDS011;22070;50.922;5.430;2023-05-19T01:54:54;11.63;;;5.45;;
36001;SDS011;22070;50.922;5.430;2023-05-19T01:57:23;13.05;;;6.22;;
36001;SDS011;22070;50.922;5.430;2023-05-19T02:02:41;16.17;;;5.60;;
36001;SDS011;22070;50.922;5.430;2023-05-19T02:08:46;8.73;;;5.25;;
36001;SDS011;22070;50.922;5.430;2023-05-19T02:13:48;23.73;;;5.88;;
36001;SDS011;22070;50.922;5.430;2023-05-19T02:16:16;11.18;;;5.60;;
36001;SDS011;22070;50.922;5.430;2023-05-19T02:18:42;14.97;;;5.90;;
36001;SDS011;22070;50.922;5.430;2023-05-19T02:21:10;10.00;;;5.80;;
36001;SDS011;22070;50.922;5.430;2023-05-19T02:23:38;11.10;;;6.20;;
36001;SDS011;22070;50.922;5.430;2023-05-19T02:26:05;10.63;;;6.15;;
36001;SDS011;22070;50.922;5.430;2023-05-19T02:28:32;10.70;;;6.10;;
36001;SDS011;22070;50.922;5.430;2023-05-19T02:31:01;12.10;;;5.97;;
36001;SDS011;22070;50.922;5.430;2023-05-19T02:33:27;12.43;;;5.75;;
36001;SDS011;22070;50.922;5.430;2023-05-19T02:38:20;14.75;;;5.97;;
36001;SDS011;22070;50.922;5.430;2023-05-19T02:40:46;9.98;;;5.45;;
36001;SDS011;22070;50.922;5.430;2023-05-19T02:43:11;14.35;;;6.13;;
36001;SDS011;22070;50.922;5.430;2023-05-19T02:45:37;13.75;;;5.97;;
36001;SDS011;22070;50.922;5.430;2023-05-19T02:48:03;12.25;;;6.53;;
36001;SDS011;22070;50.922;5.430;2023-05-19T02:50:29;10.00;;;5.90;;
36001;SDS011;22070;50.922;5.430;2023-05-19T02:52:54;11.55;;;5.90;;
36001;SDS011;22070;50.922;5.430;2023-05-19T02:55:20;10.90;;;5.70;;
36001;SDS011;22070;50.922;5.430;2023-05-19T02:57:45;9.98;;;6.35;;
36001;SDS011;22070;50.922;5.430;2023-05-19T03:00:11;12.68;;;6.03;;
36001;SDS011;22070;50.922;5.430;2023-05-19T03:02:37;10.73;;;5.87;;
36001;SDS011;22070;50.922;5.430;2023-05-19T03:05:03;11.13;;;6.20;;
36001;SDS011;22070;50.922;5.430;2023-05-19T03:07:29;11.15;;;5.57;;
36001;SDS011;22070;50.922;5.430;2023-05-19T03:09:55;18.35;;;6.45;;
36001;SDS011;22070;50.922;5.430;2023-05-19T03:12:20;14.68;;;6.60;;
36001;SDS011;22070;50.922;5.430;2023-05-19T03:14:46;9.15;;;6.20;;
36001;SDS011;22070;50.922;5.430;2023-05-19T03:17:12;15.05;;;6.50;;
36001;SDS011;22070;50.922;5.430;2023-05-19T03:19:37;13.23;;;6.22;;
36001;SDS011;22070;50.922;5.430;2023-05-19T03:22:03;11.23;;;6.07;;
36001;SDS011;22070;50.922;5.430;2023-05-19T03:24:29;15.15;;;6.30;;
36001;SDS011;22070;50.922;5.430;2023-05-19T03:26:54;11.80;;;6.25;;
36001;SDS011;22070;50.922;5.430;2023-05-19T03:29:20;19.52;;;6.30;;
36001;SDS011;22070;50.922;5.430;2023-05-19T03:31:46;13.70;;;6.22;;
36001;SDS011;22070;50.922;5.430;2023-05-19T03:34:11;12.20;;;7.20;;
36001;SDS011;22070;50.922;5.430;2023-05-19T03:36:38;12.75;;;6.45;;
36001;SDS011;22070;50.922;5.430;2023-05-19T03:39:07;13.40;;;6.38;;
36001;SDS011;22070;50.922;5.430;2023-05-19T03:41:33;10.10;;;6.05;;
36001;SDS011;22070;50.922;5.430;2023-05-19T03:43:58;12.60;;;6.32;;
36001;SDS011;22070;50.922;5.430;2023-05-19T03:46:25;9.70;;;6.15;;
36001;SDS011;22070;50.922;5.430;2023-05-19T03:48:50;13.75;;;6.13;;
36001;SDS011;22070;50.922;5.430;2023-05-19T03:51:16;11.45;;;6.30;;
36001;SDS011;22070;50.922;5.430;2023-05-19T03:53:42;10.05;;;5.90;;
36001;SDS011;22070;50.922;5.430;2023-05-19T03:56:08;12.20;;;5.85;;
36001;SDS011;22070;50.922;5.430;2023-05-19T03:58:37;10.15;;;6.32;;
36001;SDS011;22070;50.922;5.430;2023-05-19T04:01:04;15.45;;;6.90;;
36001;SDS011;22070;50.922;5.430;2023-05-19T04:03:30;12.88;;;6.30;;
36001;SDS011;22070;50.922;5.430;2023-05-19T04:05:56;13.65;;;6.55;;
36001;SDS011;22070;50.922;5.430;2023-05-19T04:08:21;11.30;;;6.18;;
36001;SDS011;22070;50.922;5.430;2023-05-19T04:10:47;9.95;;;6.40;;
36001;SDS011;22070;50.922;5.430;2023-05-19T04:13:12;11.55;;;6.25;;
36001;SDS011;22070;50.922;5.430;2023-05-19T04:15:38;11.60;;;6.75;;
36001;SDS011;22070;50.922;5.430;2023-05-19T04:18:05;12.45;;;6.45;;
36001;SDS011;22070;50.922;5.430;2023-05-19T04:20:30;14.93;;;6.72;;
36001;SDS011;22070;50.922;5.430;2023-05-19T04:22:56;13.57;;;6.13;;
36001;SDS011;22070;50.922;5.430;2023-05-19T04:25:22;15.82;;;6.07;;
36001;SDS011;22070;50.922;5.430;2023-05-19T04:27:49;13.18;;;6.40;;
36001;SDS011;22070;50.922;5.430;2023-05-19T04:30:14;12.35;;;6.20;;
36001;SDS011;22070;50.922;5.430;2023-05-19T04:32:46;10.32;;;6.10;;
36001;SDS011;22070;50.922;5.430;2023-05-19T04:35:14;9.10;;;6.03;;
36001;SDS011;22070;50.922;5.430;2023-05-19T04:37:41;12.02;;;6.50;;
36001;SDS011;22070;50.922;5.430;2023-05-19T04:40:09;11.20;;;6.40;;
36001;SDS011;22070;50.922;5.430;2023-05-19T04:42:36;14.23;;;7.05;;
36001;SDS011;22070;50.922;5.430;2023-05-19T04:45:05;11.10;;;6.95;;
36001;SDS011;22070;50.922;5.430;2023-05-19T04:47:33;13.25;;;6.40;;
36001;SDS011;22070;50.922;5.430;2023-05-19T04:50:02;9.07;;;6.40;;
36001;SDS011;22070;50.922;5.430;2023-05-19T04:52:28;24.40;;;6.93;;
36001;SDS011;22070;50.922;5.430;2023-05-19T04:54:54;13.50;;;6.38;;
36001;SDS011;22070;50.922;5.430;2023-05-19T04:57:19;13.43;;;6.68;;
36001;SDS011;22070;50.922;5.430;2023-05-19T04:59:45;11.25;;;6.43;;
36001;SDS011;22070;50.922;5.430;2023-05-19T05:02:10;15.05;;;6.10;;
36001;SDS011;22070;50.922;5.430;2023-05-19T05:04:36;19.17;;;6.28;;
36001;SDS011;22070;50.922;5.430;2023-05-19T05:07:06;17.48;;;6.25;;
36001;SDS011;22070;50.922;5.430;2023-05-19T05:09:32;9.82;;;4.50;;
36001;SDS011;22070;50.922;5.430;2023-05-19T05:11:58;17.63;;;6.93;;
36001;SDS011;22070;50.922;5.430;2023-05-19T05:14:24;13.07;;;5.90;;
36001;SDS011;22070;50.922;5.430;2023-05-19T05:16:50;16.15;;;6.68;;
36001;SDS011;22070;50.922;5.430;2023-05-19T05:19:16;11.25;;;5.95;;
36001;SDS011;22070;50.922;5.430;2023-05-19T05:21:42;10.10;;;4.80;;
36001;SDS011;22070;50.922;5.430;2023-05-19T05:24:08;16.83;;;5.88;;
36001;SDS011;22070;50.922;5.430;2023-05-19T05:26:34;9.20;;;5.32;;
36001;SDS011;22070;50.922;5.430;2023-05-19T05:29:01;16.40;;;6.25;;
36001;SDS011;22070;50.922;5.430;2023-05-19T05:33:53;12.17;;;5.67;;
36001;SDS011;22070;50.922;5.430;2023-05-19T05:36:19;21.20;;;5.97;;
36001;SDS011;22070;50.922;5.430;2023-05-19T05:38:44;10.25;;;5.57;;
36001;SDS011;22070;50.922;5.430;2023-05-19T05:41:10;13.73;;;5.70;;
36001;SDS011;22070;50.922;5.430;2023-05-19T05:43:36;9.77;;;5.22;;
36001;SDS011;22070;50.922;5.430;2023-05-19T05:46:01;11.55;;;6.03;;
36001;SDS011;22070;50.922;5.430;2023-05-19T05:48:27;11.82;;;5.32;;
36001;SDS011;22070;50.922;5.430;2023-05-19T05:50:53;17.85;;;6.13;;
36001;SDS011;22070;50.922;5.430;2023-05-19T05:53:21;12.25;;;6.50;;
36001;SDS011;22070;50.922;5.430;2023-05-19T05:55:49;13.60;;;6.07;;
36001;SDS011;22070;50.922;5.430;2023-05-19T05:58:15;16.10;;;6.03;;
36001;SDS011;22070;50.922;5.430;2023-05-19T06:00:44;16.73;;;5.70;;
36001;SDS011;22070;50.922;5.430;2023-05-19T06:03:11;14.07;;;5.60;;
36001;SDS011;22070;50.922;5.430;2023-05-19T06:05:38;17.00;;;5.65;;
36001;SDS011;22070;50.922;5.430;2023-05-19T06:08:04;14.63;;;5.75;;
36001;SDS011;22070;50.922;5.430;2023-05-19T06:10:30;11.90;;;5.03;;
36001;SDS011;22070;50.922;5.430;2023-05-19T06:12:56;16.38;;;5.20;;
36001;SDS011;22070;50.922;5.430;2023-05-19T06:15:21;16.70;;;6.15;;
36001;SDS011;22070;50.922;5.430;2023-05-19T06:17:47;12.27;;;5.50;;
36001;SDS011;22070;50.922;5.430;2023-05-19T06:20:13;14.57;;;5.53;;
36001;SDS011;22070;50.922;5.430;2023-05-19T06:22:39;16.77;;;5.75;;
36001;SDS011;22070;50.922;5.430;2023-05-19T06:25:05;17.37;;;5.40;;
36001;SDS011;22070;50.922;5.430;2023-05-19T06:27:32;20.27;;;5.97;;
36001;SDS011;22070;50.922;5.430;2023-05-19T06:29:59;16.50;;;6.10;;
36001;SDS011;22070;50.922;5.430;2023-05-19T06:32:24;12.02;;;5.35;;
36001;SDS011;22070;50.922;5.430;2023-05-19T06:34:50;14.15;;;5.65;;
36001;SDS011;22070;50.922;5.430;2023-05-19T06:37:21;11.40;;;5.30;;
36001;SDS011;22070;50.922;5.430;2023-05-19T06:39:48;10.27;;;5.60;;
36001;SDS011;22070;50.922;5.430;2023-05-19T06:42:16;13.07;;;5.47;;
36001;SDS011;22070;50.922;5.430;2023-05-19T06:44:46;12.30;;;5.30;;
36001;SDS011;22070;50.922;5.430;2023-05-19T06:47:14;14.00;;;5.03;;
36001;SDS011;22070;50.922;5.430;2023-05-19T06:49:41;13.52;;;5.43;;
36001;SDS011;22070;50.922;5.430;2023-05-19T06:52:07;11.00;;;5.18;;
36001;SDS011;22070;50.922;5.430;2023-05-19T06:54:32;16.88;;;5.32;;
36001;SDS011;22070;50.922;5.430;2023-05-19T06:56:58;13.00;;;5.32;;
36001;SDS011;22070;50.922;5.430;2023-05-19T06:59:24;10.93;;;5.17;;
36001;SDS011;22070;50.922;5.430;2023-05-19T07:01:49;10.32;;;4.80;;
36001;SDS011;22070;50.922;5.430;2023-05-19T07:04:15;12.90;;;5.33;;
36001;SDS011;22070;50.922;5.430;2023-05-19T07:06:41;13.27;;;5.00;;
36001;SDS011;22070;50.922;5.430;2023-05-19T07:09:06;10.00;;;4.60;;
36001;SDS011;22070;50.922;5.430;2023-05-19T07:11:32;11.95;;;4.40;;
36001;SDS011;22070;50.922;5.430;2023-05-19T07:13:58;15.55;;;4.55;;
36001;SDS011;22070;50.922;5.430;2023-05-19T07:16:24;10.05;;;4.05;;
36001;SDS011;22070;50.922;5.430;2023-05-19T07:18:50;9.80;;;4.85;;
36001;SDS011;22070;50.922;5.430;2023-05-19T07:21:15;9.73;;;4.37;;
36001;SDS011;22070;50.922;5.430;2023-05-19T07:23:41;10.30;;;4.88;;
36001;SDS011;22070;50.922;5.430;2023-05-19T07:26:06;10.18;;;3.60;;
36001;SDS011;22070;50.922;5.430;2023-05-19T07:28:32;8.27;;;3.33;;
36001;SDS011;22070;50.922;5.430;2023-05-19T07:30:58;11.18;;;4.13;;
36001;SDS011;22070;50.922;5.430;2023-05-19T07:33:24;8.32;;;3.83;;
36001;SDS011;22070;50.922;5.430;2023-05-19T07:35:51;8.40;;;3.90;;
36001;SDS011;22070;50.922;5.430;2023-05-19T07:38:17;8.80;;;2.93;;
36001;SDS011;22070;50.922;5.430;2023-05-19T07:40:42;8.70;;;3.10;;
36001;SDS011;22070;50.922;5.430;2023-05-19T07:43:08;8.73;;;3.10;;
36001;SDS011;22070;50.922;5.430;2023-05-19T07:48:01;6.25;;;2.22;;
36001;SDS011;22070;50.922;5.430;2023-05-19T07:50:27;7.07;;;2.67;;
36001;SDS011;22070;50.922;5.430;2023-05-19T07:52:53;6.63;;;3.10;;
36001;SDS011;22070;50.922;5.430;2023-05-19T07:55:18;6.73;;;3.00;;
36001;SDS011;22070;50.922;5.430;2023-05-19T07:57:47;6.38;;;2.97;;
36001;SDS011;22070;50.922;5.430;2023-05-19T08:00:15;8.57;;;2.85;;
36001;SDS011;22070;50.922;5.430;2023-05-19T08:02:41;10.75;;;2.80;;
36001;SDS011;22070;50.922;5.430;2023-05-19T08:05:07;10.10;;;2.90;;
36001;SDS011;22070;50.922;5.430;2023-05-19T08:07:33;8.37;;;2.63;;
36001;SDS011;22070;50.922;5.430;2023-05-19T08:09:59;14.57;;;2.93;;
36001;SDS011;22070;50.922;5.430;2023-05-19T08:12:25;6.65;;;2.13;;
36001;SDS011;22070;50.922;5.430;2023-05-19T08:14:50;7.50;;;2.70;;
36001;SDS011;22070;50.922;5.430;2023-05-19T08:17:16;10.40;;;2.73;;
36001;SDS011;22070;50.922;5.430;2023-05-19T08:19:42;6.63;;;2.30;;
36001;SDS011;22070;50.922;5.430;2023-05-19T08:22:08;8.95;;;2.50;;
36001;SDS011;22070;50.922;5.430;2023-05-19T08:24:33;5.67;;;2.07;;
36001;SDS011;22070;50.922;5.430;2023-05-19T08:26:59;6.93;;;1.77;;
36001;SDS011;22070;50.922;5.430;2023-05-19T08:29:24;6.10;;;2.00;;
36001;SDS011;22070;50.922;5.430;2023-05-19T08:31:50;6.10;;;2.10;;
36001;SDS011;22070;50.922;5.430;2023-05-19T08:34:17;6.65;;;2.10;;
36001;SDS011;22070;50.922;5.430;2023-05-19T08:36:43;6.93;;;2.25;;
36001;SDS011;22070;50.922;5.430;2023-05-19T08:39:09;10.43;;;2.37;;
36001;SDS011;22070;50.922;5.430;2023-05-19T08:41:35;6.13;;;2.33;;
36001;SDS011;22070;50.922;5.430;2023-05-19T08:44:01;9.13;;;2.40;;
36001;SDS011;22070;50.922;5.430;2023-05-19T08:46:28;6.25;;;2.10;;
36001;SDS011;22070;50.922;5.430;2023-05-19T08:51:47;6.20;;;2.35;;
36001;SDS011;22070;50.922;5.430;2023-05-19T08:54:19;7.63;;;2.15;;
36001;SDS011;22070;50.922;5.430;2023-05-19T08:56:49;8.77;;;2.25;;
36001;SDS011;22070;50.922;5.430;2023-05-19T08:59:15;7.33;;;2.17;;
36001;SDS011;22070;50.922;5.430;2023-05-19T09:01:45;8.65;;;2.50;;
36001;SDS011;22070;50.922;5.430;2023-05-19T09:04:11;9.18;;;2.20;;
36001;SDS011;22070;50.922;5.430;2023-05-19T09:06:37;7.40;;;2.13;;
36001;SDS011;22070;50.922;5.430;2023-05-19T09:09:08;5.47;;;2.10;;
36001;SDS011;22070;50.922;5.430;2023-05-19T09:11:34;5.10;;;1.83;;
36001;SDS011;22070;50.922;5.430;2023-05-19T09:14:02;7.68;;;2.38;;
36001;SDS011;22070;50.922;5.430;2023-05-19T09:16:28;5.65;;;2.00;;
36001;SDS011;22070;50.922;5.430;2023-05-19T09:18:57;9.23;;;2.13;;
36001;SDS011;22070;50.922;5.430;2023-05-19T09:21:31;6.97;;;1.85;;
36001;SDS011;22070;50.922;5.430;2023-05-19T09:23:57;3.95;;;1.75;;
36001;SDS011;22070;50.922;5.430;2023-05-19T09:26:36;4.78;;;1.60;;
36001;SDS011;22070;50.922;5.430;2023-05-19T09:29:09;4.03;;;1.70;;
36001;SDS011;22070;50.922;5.430;2023-05-19T09:31:36;4.97;;;1.70;;
36001;SDS011;22070;50.922;5.430;2023-05-19T09:34:01;7.67;;;1.90;;
36001;SDS011;22070;50.922;5.430;2023-05-19T09:36:28;8.13;;;1.63;;
36001;SDS011;22070;50.922;5.430;2023-05-19T09:38:55;6.43;;;1.80;;
36001;SDS011;22070;50.922;5.430;2023-05-19T09:41:20;6.47;;;1.80;;
36001;SDS011;22070;50.922;5.430;2023-05-19T09:43:53;6.07;;;2.00;;
36001;SDS011;22070;50.922;5.430;2023-05-19T09:46:23;12.25;;;2.22;;
36001;SDS011;22070;50.922;5.430;2023-05-19T09:48:58;6.75;;;2.13;;
36001;SDS011;22070;50.922;5.430;2023-05-19T09:51:24;6.25;;;2.25;;
36001;SDS011;22070;50.922;5.430;2023-05-19T09:53:50;6.37;;;2.33;;
36001;SDS011;22070;50.922;5.430;2023-05-19T09:56:17;8.45;;;1.90;;
36001;SDS011;22070;50.922;5.430;2023-05-19T09:58:47;5.97;;;1.75;;
36001;SDS011;22070;50.922;5.430;2023-05-19T10:01:13;7.73;;;1.80;;
36001;SDS011;22070;50.922;5.430;2023-05-19T10:03:39;5.03;;;2.20;;
36001;SDS011;22070;50.922;5.430;2023-05-19T10:06:06;7.03;;;1.90;;
36001;SDS011;22070;50.922;5.430;2023-05-19T10:10:59;9.80;;;2.10;;
36001;SDS011;22070;50.922;5.430;2023-05-19T10:13:26;5.30;;;2.00;;
36001;SDS011;22070;50.922;5.430;2023-05-19T10:15:53;8.40;;;2.28;;
36001;SDS011;22070;50.922;5.430;2023-05-19T10:18:21;10.18;;;2.40;;
36001;SDS011;22070;50.922;5.430;2023-05-19T10:20:48;8.15;;;2.15;;
36001;SDS011;22070;50.922;5.430;2023-05-19T10:25:41;9.30;;;2.30;;
36001;SDS011;22070;50.922;5.430;2023-05-19T10:28:08;7.13;;;2.20;;
36001;SDS011;22070;50.922;5.430;2023-05-19T10:30:40;8.93;;;2.60;;
36001;SDS011;22070;50.922;5.430;2023-05-19T10:33:09;4.10;;;2.15;;
36001;SDS011;22070;50.922;5.430;2023-05-19T10:42:00;5.88;;;2.30;;
36001;SDS011;22070;50.922;5.430;2023-05-19T10:46:30;10.60;;;2.40;;
36001;SDS011;22070;50.922;5.430;2023-05-19T10:48:55;11.20;;;2.40;;
36001;SDS011;22070;50.922;5.430;2023-05-19T10:51:27;7.77;;;2.53;;
36001;SDS011;22070;50.922;5.430;2023-05-19T10:53:55;9.95;;;2.58;;
36001;SDS011;22070;50.922;5.430;2023-05-19T10:56:27;8.52;;;2.42;;
36001;SDS011;22070;50.922;5.430;2023-05-19T10:59:03;9.45;;;2.60;;
36001;SDS011;22070;50.922;5.430;2023-05-19T11:01:30;7.70;;;2.20;;
36001;SDS011;22070;50.922;5.430;2023-05-19T11:03:57;10.10;;;2.38;;
36001;SDS011;22070;50.922;5.430;2023-05-19T11:06:33;5.07;;;2.30;;
36001;SDS011;22070;50.922;5.430;2023-05-19T11:09:16;7.93;;;2.42;;
36001;SDS011;22070;50.922;5.430;2023-05-19T11:11:43;8.23;;;2.90;;
36001;SDS011;22070;50.922;5.430;2023-05-19T11:14:13;8.70;;;2.50;;
36001;SDS011;22070;50.922;5.430;2023-05-19T11:16:41;11.90;;;2.47;;
36001;SDS011;22070;50.922;5.430;2023-05-19T11:19:07;6.13;;;2.15;;
36001;SDS011;22070;50.922;5.430;2023-05-19T11:32:33;8.75;;;2.45;;
36001;SDS011;22070;50.922;5.430;2023-05-19T11:35:03;8.35;;;2.60;;
36001;SDS011;22070;50.922;5.430;2023-05-19T11:37:32;6.80;;;2.80;;
36001;SDS011;22070;50.922;5.430;2023-05-19T11:40:05;7.88;;;2.90;;
36001;SDS011;22070;50.922;5.430;2023-05-19T11:42:31;7.22;;;2.60;;
36001;SDS011;22070;50.922;5.430;2023-05-19T11:44:58;11.73;;;2.92;;
36001;SDS011;22070;50.922;5.430;2023-05-19T11:47:24;8.20;;;3.27;;
36001;SDS011;22070;50.922;5.430;2023-05-19T11:49:52;11.98;;;2.90;;
36001;SDS011;22070;50.922;5.430;2023-05-19T11:52:22;8.80;;;2.50;;
36001;SDS011;22070;50.922;5.430;2023-05-19T11:54:48;6.55;;;2.58;;
36001;SDS011;22070;50.922;5.430;2023-05-19T11:57:15;3.55;;;2.38;;
36001;SDS011;22070;50.922;5.430;2023-05-19T11:59:41;9.90;;;2.97;;
36001;SDS011;22070;50.922;5.430;2023-05-19T12:04:42;9.35;;;2.67;;
36001;SDS011;22070;50.922;5.430;2023-05-19T12:07:09;10.83;;;2.43;;
36001;SDS011;22070;50.922;5.430;2023-05-19T12:09:36;5.22;;;1.90;;
36001;SDS011;22070;50.922;5.430;2023-05-19T12:12:01;8.07;;;2.63;;
36001;SDS011;22070;50.922;5.430;2023-05-19T12:14:28;5.93;;;2.40;;
36001;SDS011;22070;50.922;5.430;2023-05-19T12:16:58;5.88;;;2.33;;
36001;SDS011;22070;50.922;5.430;2023-05-19T12:19:33;11.02;;;3.00;;
36001;SDS011;22070;50.922;5.430;2023-05-19T12:21:59;7.20;;;2.43;;
36001;SDS011;22070;50.922;5.430;2023-05-19T12:24:25;7.60;;;2.33;;
36001;SDS011;22070;50.922;5.430;2023-05-19T12:26:50;6.40;;;2.00;;
36001;SDS011;22070;50.922;5.430;2023-05-19T12:29:16;6.87;;;2.00;;
36001;SDS011;22070;50.922;5.430;2023-05-19T12:31:42;7.67;;;2.53;;
36001;SDS011;22070;50.922;5.430;2023-05-19T12:34:11;7.63;;;2.50;;
36001;SDS011;22070;50.922;5.430;2023-05-19T12:36:37;11.15;;;2.42;;
36001;SDS011;22070;50.922;5.430;2023-05-19T12:39:03;6.37;;;2.13;;
36001;SDS011;22070;50.922;5.430;2023-05-19T12:41:30;10.15;;;2.60;;
36001;SDS011;22070;50.922;5.430;2023-05-19T12:43:55;5.87;;;1.80;;
36001;SDS011;22070;50.922;5.430;2023-05-19T12:46:21;8.90;;;2.67;;
36001;SDS011;22070;50.922;5.430;2023-05-19T12:48:47;18.77;;;2.50;;
36001;SDS011;22070;50.922;5.430;2023-05-19T12:51:16;7.13;;;2.20;;
36001;SDS011;22070;50.922;5.430;2023-05-19T12:53:45;5.97;;;1.88;;
36001;SDS011;22070;50.922;5.430;2023-05-19T12:56:12;9.68;;;2.10;;
36001;SDS011;22070;50.922;5.430;2023-05-19T12:58:39;13.52;;;2.55;;
36001;SDS011;22070;50.922;5.430;2023-05-19T13:03:37;4.75;;;1.88;;
36001;SDS011;22070;50.922;5.430;2023-05-19T13:06:05;5.10;;;1.90;;
36001;SDS011;22070;50.922;5.430;2023-05-19T13:08:31;7.43;;;2.27;;
36001;SDS011;22070;50.922;5.430;2023-05-19T13:10:57;6.30;;;2.22;;
36001;SDS011;22070;50.922;5.430;2023-05-19T13:13:23;8.33;;;2.10;;
36001;SDS011;22070;50.922;5.430;2023-05-19T13:15:49;17.90;;;2.17;;
36001;SDS011;22070;50.922;5.430;2023-05-19T13:18:14;21.13;;;2.93;;
36001;SDS011;22070;50.922;5.430;2023-05-19T13:23:11;9.90;;;2.03;;
36001;SDS011;22070;50.922;5.430;2023-05-19T13:25:38;5.93;;;2.20;;
36001;SDS011;22070;50.922;5.430;2023-05-19T13:28:05;6.43;;;2.25;;
36001;SDS011;22070;50.922;5.430;2023-05-19T13:30:34;9.90;;;2.60;;
36001;SDS011;22070;50.922;5.430;2023-05-19T13:33:02;10.68;;;2.50;;
36001;SDS011;22070;50.922;5.430;2023-05-19T13:35:28;3.83;;;1.90;;
36001;SDS011;22070;50.922;5.430;2023-05-19T13:38:00;10.25;;;2.55;;
36001;SDS011;22070;50.922;5.430;2023-05-19T13:40:29;5.32;;;1.90;;
36001;SDS011;22070;50.922;5.430;2023-05-19T13:42:58;8.73;;;2.90;;
36001;SDS011;22070;50.922;5.430;2023-05-19T13:45:24;10.43;;;2.47;;
36001;SDS011;22070;50.922;5.430;2023-05-19T13:47:49;6.03;;;1.90;;
36001;SDS011;22070;50.922;5.430;2023-05-19T13:50:15;12.40;;;2.57;;
36001;SDS011;22070;50.922;5.430;2023-05-19T13:52:41;4.20;;;1.63;;
36001;SDS011;22070;50.922;5.430;2023-05-19T13:55:07;3.57;;;2.07;;
36001;SDS011;22070;50.922;5.430;2023-05-19T13:57:33;5.43;;;2.15;;
36001;SDS011;22070;50.922;5.430;2023-05-19T13:59:59;10.05;;;2.00;;
36001;SDS011;22070;50.922;5.430;2023-05-19T14:02:25;5.70;;;2.03;;
36001;SDS011;22070;50.922;5.430;2023-05-19T14:04:50;7.77;;;2.40;;
36001;SDS011;22070;50.922;5.430;2023-05-19T14:07:16;19.63;;;4.10;;
36001;SDS011;22070;50.922;5.430;2023-05-19T14:09:42;14.70;;;2.40;;
36001;SDS011;22070;50.922;5.430;2023-05-19T14:12:07;7.57;;;2.27;;
36001;SDS011;22070;50.922;5.430;2023-05-19T14:14:36;16.83;;;2.70;;
36001;SDS011;22070;50.922;5.430;2023-05-19T14:17:02;17.00;;;2.75;;
36001;SDS011;22070;50.922;5.430;2023-05-19T14:19:28;16.47;;;2.60;;
36001;SDS011;22070;50.922;5.430;2023-05-19T14:21:54;4.70;;;1.45;;
36001;SDS011;22070;50.922;5.430;2023-05-19T14:24:21;8.65;;;2.35;;
36001;SDS011;22070;50.922;5.430;2023-05-19T14:26:46;5.80;;;2.10;;
36001;SDS011;22070;50.922;5.430;2023-05-19T14:29:13;8.32;;;2.83;;
36001;SDS011;22070;50.922;5.430;2023-05-19T14:31:39;6.97;;;2.37;;
36001;SDS011;22070;50.922;5.430;2023-05-19T14:34:04;9.93;;;2.57;;
36001;SDS011;22070;50.922;5.430;2023-05-19T14:36:30;6.23;;;2.70;;
36001;SDS011;22070;50.922;5.430;2023-05-19T14:38:57;6.97;;;2.28;;
36001;SDS011;22070;50.922;5.430;2023-05-19T14:41:22;12.40;;;2.60;;
36001;SDS011;22070;50.922;5.430;2023-05-19T14:43:48;12.33;;;2.63;;
36001;SDS011;22070;50.922;5.430;2023-05-19T14:46:14;4.53;;;2.30;;
36001;SDS011;22070;50.922;5.430;2023-05-19T14:48:39;4.80;;;2.40;;
36001;SDS011;22070;50.922;5.430;2023-05-19T14:51:05;7.93;;;2.60;;
36001;SDS011;22070;50.922;5.430;2023-05-19T14:53:31;12.07;;;2.43;;
36001;SDS011;22070;50.922;5.430;2023-05-19T14:55:56;8.07;;;2.43;;
36001;SDS011;22070;50.922;5.430;2023-05-19T14:58:22;10.00;;;2.97;;
36001;SDS011;22070;50.922;5.430;2023-05-19T15:00:47;7.10;;;2.67;;
36001;SDS011;22070;50.922;5.430;2023-05-19T15:03:13;7.57;;;2.53;;
36001;SDS011;22070;50.922;5.430;2023-05-19T15:05:38;5.97;;;2.30;;
36001;SDS011;22070;50.922;5.430;2023-05-19T15:08:04;7.37;;;2.60;;
36001;SDS011;22070;50.922;5.430;2023-05-19T15:10:30;8.02;;;2.63;;
36001;SDS011;22070;50.922;5.430;2023-05-19T15:12:56;7.93;;;2.40;;
36001;SDS011;22070;50.922;5.430;2023-05-19T15:15:23;11.20;;;2.58;;
36001;SDS011;22070;50.922;5.430;2023-05-19T15:17:49;9.47;;;2.47;;
36001;SDS011;22070;50.922;5.430;2023-05-19T15:20:14;10.37;;;2.93;;
36001;SDS011;22070;50.922;5.430;2023-05-19T15:22:40;7.27;;;3.00;;
36001;SDS011;22070;50.922;5.430;2023-05-19T15:25:06;7.27;;;3.20;;
36001;SDS011;22070;50.922;5.430;2023-05-19T15:27:33;21.90;;;3.40;;
36001;SDS011;22070;50.922;5.430;2023-05-19T15:30:00;8.30;;;3.42;;
36001;SDS011;22070;50.922;5.430;2023-05-19T15:32:26;7.97;;;3.00;;
36001;SDS011;22070;50.922;5.430;2023-05-19T15:34:52;6.17;;;3.03;;
36001;SDS011;22070;50.922;5.430;2023-05-19T15:37:18;6.73;;;2.20;;
36001;SDS011;22070;50.922;5.430;2023-05-19T15:39:43;10.83;;;3.10;;
36001;SDS011;22070;50.922;5.430;2023-05-19T15:42:09;8.90;;;3.00;;
36001;SDS011;22070;50.922;5.430;2023-05-19T15:44:35;4.83;;;2.50;;
36001;SDS011;22070;50.922;5.430;2023-05-19T15:47:00;5.97;;;2.93;;